TAF Flughafenprognosen

Nürnberg TAF, ausgegeben Fr 22.03. 06:00

TAF EDDN 220500Z 2206/2306 VRB02KT CAVOK BECMG 2208/2210 11005KT BECMG 2216/2218 VRB03KT PROB30 TEMPO 2303/2306 4000 BCFG
GültigkeitVonBisWind in Beaufort
(Knoten)
Wolken
(Meter über Grund)
Sichtweite
(Meter)
Wettererscheinung
Grundvorhersage Fr 22.03. 07:00 Sa 23.03. 07:00 Uml 1 (2) Nicht signifikant >= 10000  
Übergang zu Fr 22.03. 09:00 Fr 22.03. 11:00 OSO 2 (5)      
Übergang zu Fr 22.03. 17:00 Fr 22.03. 19:00 Uml 2 (3)      
Vorübergehend
(Wahrscheinlichkeit 30 %)
Sa 23.03. 04:00 Sa 23.03. 07:00     4000 Nebel-Bänke

 

Hof TAF, ausgegeben Fr 22.03. 07:01

TAF EDQM 220601Z 2206/2215 VRB03KT CAVOK BECMG 2208/2210 09005KT
GültigkeitVonBisWind in Beaufort
(Knoten)
Wolken
(Meter über Grund)
Sichtweite
(Meter)
Wettererscheinung
Grundvorhersage Fr 22.03. 07:00 Fr 22.03. 16:00 Uml 2 (3) Nicht signifikant >= 10000  
Übergang zu Fr 22.03. 09:00 Fr 22.03. 11:00 O 2 (5)      

 

Erfurt-Bindersleben TAF, ausgegeben Fr 22.03. 06:00

TAF EDDE 220500Z 2206/2306 07004KT CAVOK BECMG 2219/2221 20007KT
GültigkeitVonBisWind in Beaufort
(Knoten)
Wolken
(Meter über Grund)
Sichtweite
(Meter)
Wettererscheinung
Grundvorhersage Fr 22.03. 07:00 Sa 23.03. 07:00 ONO 2 (4) Nicht signifikant >= 10000  
Übergang zu Fr 22.03. 20:00 Fr 22.03. 22:00 SSW 3 (7)      

 

Augsburg TAF, ausgegeben Fr 22.03. 07:22

TAF EDMA 220622Z 2207/2215 VRB03KT CAVOK BECMG 2208/2210 08005KT
GültigkeitVonBisWind in Beaufort
(Knoten)
Wolken
(Meter über Grund)
Sichtweite
(Meter)
Wettererscheinung
Grundvorhersage Fr 22.03. 08:00 Fr 22.03. 16:00 Uml 2 (3) Nicht signifikant >= 10000  
Übergang zu Fr 22.03. 09:00 Fr 22.03. 11:00 O 2 (5)      

 

Frankfurt TAF, ausgegeben Fr 22.03. 06:00

TAF EDDF 220500Z 2206/2312 06004KT CAVOK TEMPO 2210/2216 12005KT TEMPO 2310/2312 25005KT
GültigkeitVonBisWind in Beaufort
(Knoten)
Wolken
(Meter über Grund)
Sichtweite
(Meter)
Wettererscheinung
Grundvorhersage Fr 22.03. 07:00 Sa 23.03. 13:00 ONO 2 (4) Nicht signifikant >= 10000  
Vorübergehend Fr 22.03. 11:00 Fr 22.03. 17:00 OSO 2 (5)      
Vorübergehend Sa 23.03. 11:00 Sa 23.03. 13:00 WSW 2 (5)      

 

Stuttgart TAF, ausgegeben Fr 22.03. 06:00

TAF EDDS 220500Z 2206/2306 VRB02KT CAVOK TEMPO 2210/2216 07005KT
GültigkeitVonBisWind in Beaufort
(Knoten)
Wolken
(Meter über Grund)
Sichtweite
(Meter)
Wettererscheinung
Grundvorhersage Fr 22.03. 07:00 Sa 23.03. 07:00 Uml 1 (2) Nicht signifikant >= 10000  
Vorübergehend Fr 22.03. 11:00 Fr 22.03. 17:00 ONO 2 (5)      

 

München TAF, ausgegeben Fr 22.03. 06:00

TAF EDDM 220500Z 2206/2312 VRB03KT CAVOK BECMG 2207/2209 08006KT BECMG 2216/2218 VRB02KT PROB30 TEMPO 2303/2307 4000 BCFG BECMG 2308/2310 26005KT
GültigkeitVonBisWind in Beaufort
(Knoten)
Wolken
(Meter über Grund)
Sichtweite
(Meter)
Wettererscheinung
Grundvorhersage Fr 22.03. 07:00 Sa 23.03. 13:00 Uml 2 (3) Nicht signifikant >= 10000  
Übergang zu Fr 22.03. 08:00 Fr 22.03. 10:00 O 2 (6)      
Übergang zu Fr 22.03. 17:00 Fr 22.03. 19:00 Uml 1 (2)      
Vorübergehend
(Wahrscheinlichkeit 30 %)
Sa 23.03. 04:00 Sa 23.03. 08:00     4000 Nebel-Bänke
Übergang zu Sa 23.03. 09:00 Sa 23.03. 11:00 W 2 (5)